sensor_id;sensor_type;location;lat;lon;timestamp;temperature;humidity
44843;DHT22;31884;52.538;13.820;2023-07-31T00:01:17;15.90;99.90
44843;DHT22;31884;52.538;13.820;2023-07-31T00:03:43;15.90;99.90
44843;DHT22;31884;52.538;13.820;2023-07-31T00:06:08;15.90;99.90
44843;DHT22;31884;52.538;13.820;2023-07-31T00:08:34;15.90;99.90
44843;DHT22;31884;52.538;13.820;2023-07-31T00:10:59;15.90;99.90
44843;DHT22;31884;52.538;13.820;2023-07-31T00:13:25;15.90;99.90
44843;DHT22;31884;52.538;13.820;2023-07-31T00:15:50;15.90;99.90
44843;DHT22;31884;52.538;13.820;2023-07-31T00:18:16;15.90;99.90
44843;DHT22;31884;52.538;13.820;2023-07-31T00:20:41;15.90;99.90
44843;DHT22;31884;52.538;13.820;2023-07-31T00:23:07;15.90;99.90
44843;DHT22;31884;52.538;13.820;2023-07-31T00:25:32;15.80;99.90
44843;DHT22;31884;52.538;13.820;2023-07-31T00:27:58;15.90;99.90
44843;DHT22;31884;52.538;13.820;2023-07-31T00:30:23;15.80;99.90
44843;DHT22;31884;52.538;13.820;2023-07-31T00:32:50;15.80;99.90
44843;DHT22;31884;52.538;13.820;2023-07-31T00:35:16;15.80;99.90
44843;DHT22;31884;52.538;13.820;2023-07-31T00:37:41;15.80;99.90
44843;DHT22;31884;52.538;13.820;2023-07-31T00:40:07;15.70;99.90
44843;DHT22;31884;52.538;13.820;2023-07-31T00:42:33;15.60;99.90
44843;DHT22;31884;52.538;13.820;2023-07-31T00:44:58;15.50;99.90
44843;DHT22;31884;52.538;13.820;2023-07-31T00:47:24;15.50;99.90
44843;DHT22;31884;52.538;13.820;2023-07-31T00:49:50;15.40;99.90
44843;DHT22;31884;52.538;13.820;2023-07-31T00:52:16;15.30;99.90
44843;DHT22;31884;52.538;13.820;2023-07-31T00:54:42;15.30;99.90
44843;DHT22;31884;52.538;13.820;2023-07-31T00:57:08;15.20;99.90
44843;DHT22;31884;52.538;13.820;2023-07-31T00:59:34;15.20;99.90
44843;DHT22;31884;52.538;13.820;2023-07-31T01:01:59;15.20;99.90
44843;DHT22;31884;52.538;13.820;2023-07-31T01:04:26;15.10;99.90
44843;DHT22;31884;52.538;13.820;2023-07-31T01:09:43;15.10;99.90
44843;DHT22;31884;52.538;13.820;2023-07-31T01:12:14;15.10;99.90
44843;DHT22;31884;52.538;13.820;2023-07-31T01:14:39;15.00;99.90
44843;DHT22;31884;52.538;13.820;2023-07-31T01:17:05;15.00;99.90
44843;DHT22;31884;52.538;13.820;2023-07-31T01:19:31;15.00;99.90
44843;DHT22;31884;52.538;13.820;2023-07-31T01:25:08;15.00;99.90
44843;DHT22;31884;52.538;13.820;2023-07-31T01:27:40;15.00;99.90
44843;DHT22;31884;52.538;13.820;2023-07-31T01:30:16;15.10;99.90
44843;DHT22;31884;52.538;13.820;2023-07-31T01:32:47;15.10;99.90
44843;DHT22;31884;52.538;13.820;2023-07-31T01:35:13;15.10;99.90
44843;DHT22;31884;52.538;13.820;2023-07-31T01:37:38;15.10;99.90
44843;DHT22;31884;52.538;13.820;2023-07-31T01:40:04;15.20;99.90
44843;DHT22;31884;52.538;13.820;2023-07-31T01:42:30;15.20;99.90
44843;DHT22;31884;52.538;13.820;2023-07-31T01:44:55;15.20;99.90
44843;DHT22;31884;52.538;13.820;2023-07-31T01:47:21;15.20;99.90
44843;DHT22;31884;52.538;13.820;2023-07-31T01:49:46;15.20;99.90
44843;DHT22;31884;52.538;13.820;2023-07-31T01:52:12;15.30;99.90
44843;DHT22;31884;52.538;13.820;2023-07-31T01:54:37;15.30;99.90
44843;DHT22;31884;52.538;13.820;2023-07-31T01:57:03;15.30;99.90
44843;DHT22;31884;52.538;13.820;2023-07-31T01:59:29;15.30;99.90
44843;DHT22;31884;52.538;13.820;2023-07-31T02:01:54;15.40;99.90
44843;DHT22;31884;52.538;13.820;2023-07-31T02:04:20;15.40;99.90
44843;DHT22;31884;52.538;13.820;2023-07-31T02:06:46;15.40;99.90
44843;DHT22;31884;52.538;13.820;2023-07-31T02:09:11;15.40;99.90
44843;DHT22;31884;52.538;13.820;2023-07-31T02:11:36;15.50;99.90
44843;DHT22;31884;52.538;13.820;2023-07-31T02:14:02;15.50;99.90
44843;DHT22;31884;52.538;13.820;2023-07-31T02:16:27;15.50;99.90
44843;DHT22;31884;52.538;13.820;2023-07-31T02:18:53;15.50;99.90
44843;DHT22;31884;52.538;13.820;2023-07-31T02:21:18;15.50;99.90
44843;DHT22;31884;52.538;13.820;2023-07-31T02:23:44;15.50;99.90
44843;DHT22;31884;52.538;13.820;2023-07-31T02:26:09;15.50;99.90
44843;DHT22;31884;52.538;13.820;2023-07-31T02:28:35;15.50;99.90
44843;DHT22;31884;52.538;13.820;2023-07-31T02:31:00;15.50;99.90
44843;DHT22;31884;52.538;13.820;2023-07-31T02:33:26;15.50;99.90
44843;DHT22;31884;52.538;13.820;2023-07-31T02:35:51;15.50;99.90
44843;DHT22;31884;52.538;13.820;2023-07-31T02:38:17;15.50;99.90
44843;DHT22;31884;52.538;13.820;2023-07-31T02:40:42;15.40;99.90
44843;DHT22;31884;52.538;13.820;2023-07-31T02:43:08;15.40;99.90
44843;DHT22;31884;52.538;13.820;2023-07-31T02:45:34;15.40;99.90
44843;DHT22;31884;52.538;13.820;2023-07-31T02:48:00;15.40;99.90
44843;DHT22;31884;52.538;13.820;2023-07-31T02:50:25;15.40;99.90
44843;DHT22;31884;52.538;13.820;2023-07-31T02:52:52;15.40;99.90
44843;DHT22;31884;52.538;13.820;2023-07-31T02:55:18;15.40;99.90
44843;DHT22;31884;52.538;13.820;2023-07-31T02:57:43;15.40;99.90
44843;DHT22;31884;52.538;13.820;2023-07-31T03:00:09;15.40;99.90
44843;DHT22;31884;52.538;13.820;2023-07-31T03:02:35;15.40;99.90
44843;DHT22;31884;52.538;13.820;2023-07-31T03:05:00;15.40;99.90
44843;DHT22;31884;52.538;13.820;2023-07-31T03:07:26;15.40;99.90
44843;DHT22;31884;52.538;13.820;2023-07-31T03:09:51;15.40;99.90
44843;DHT22;31884;52.538;13.820;2023-07-31T03:12:17;15.40;99.90
44843;DHT22;31884;52.538;13.820;2023-07-31T03:14:42;15.30;99.90
44843;DHT22;31884;52.538;13.820;2023-07-31T03:17:08;15.30;99.90
44843;DHT22;31884;52.538;13.820;2023-07-31T03:19:33;15.40;99.90
44843;DHT22;31884;52.538;13.820;2023-07-31T03:21:59;15.40;99.90
44843;DHT22;31884;52.538;13.820;2023-07-31T03:24:25;15.40;99.90
44843;DHT22;31884;52.538;13.820;2023-07-31T03:26:51;15.40;99.90
44843;DHT22;31884;52.538;13.820;2023-07-31T03:29:16;15.40;99.90
44843;DHT22;31884;52.538;13.820;2023-07-31T03:31:42;15.40;99.90
44843;DHT22;31884;52.538;13.820;2023-07-31T03:34:07;15.40;99.90
44843;DHT22;31884;52.538;13.820;2023-07-31T03:36:33;15.40;99.90
44843;DHT22;31884;52.538;13.820;2023-07-31T03:38:58;15.40;99.90
44843;DHT22;31884;52.538;13.820;2023-07-31T03:41:24;15.40;99.90
44843;DHT22;31884;52.538;13.820;2023-07-31T03:43:51;15.40;99.90
44843;DHT22;31884;52.538;13.820;2023-07-31T03:46:17;15.40;99.90
44843;DHT22;31884;52.538;13.820;2023-07-31T03:48:43;15.40;99.90
44843;DHT22;31884;52.538;13.820;2023-07-31T03:51:08;15.40;99.90
44843;DHT22;31884;52.538;13.820;2023-07-31T03:53:34;15.50;99.90
44843;DHT22;31884;52.538;13.820;2023-07-31T03:55:59;15.40;99.90
44843;DHT22;31884;52.538;13.820;2023-07-31T03:58:25;15.50;99.90
44843;DHT22;31884;52.538;13.820;2023-07-31T04:00:50;15.50;99.90
44843;DHT22;31884;52.538;13.820;2023-07-31T04:03:15;15.50;99.90
44843;DHT22;31884;52.538;13.820;2023-07-31T04:05:41;15.50;99.90
44843;DHT22;31884;52.538;13.820;2023-07-31T04:08:06;15.50;99.90
44843;DHT22;31884;52.538;13.820;2023-07-31T04:10:32;15.50;99.90
44843;DHT22;31884;52.538;13.820;2023-07-31T04:12:59;15.50;99.90
44843;DHT22;31884;52.538;13.820;2023-07-31T04:15:25;15.50;99.90
44843;DHT22;31884;52.538;13.820;2023-07-31T04:17:50;15.50;99.90
44843;DHT22;31884;52.538;13.820;2023-07-31T04:20:16;15.60;99.90
44843;DHT22;31884;52.538;13.820;2023-07-31T04:22:41;15.60;99.90
44843;DHT22;31884;52.538;13.820;2023-07-31T04:25:07;15.60;99.90
44843;DHT22;31884;52.538;13.820;2023-07-31T04:27:32;15.70;99.90
44843;DHT22;31884;52.538;13.820;2023-07-31T04:29:58;15.60;99.90
44843;DHT22;31884;52.538;13.820;2023-07-31T04:32:23;15.70;99.90
44843;DHT22;31884;52.538;13.820;2023-07-31T04:34:49;15.70;99.90
44843;DHT22;31884;52.538;13.820;2023-07-31T04:37:14;15.70;99.90
44843;DHT22;31884;52.538;13.820;2023-07-31T04:39:40;15.70;99.90
44843;DHT22;31884;52.538;13.820;2023-07-31T04:42:05;15.80;99.90
44843;DHT22;31884;52.538;13.820;2023-07-31T04:44:31;15.80;99.90
44843;DHT22;31884;52.538;13.820;2023-07-31T04:46:56;15.90;99.90
44843;DHT22;31884;52.538;13.820;2023-07-31T04:49:22;15.90;99.90
44843;DHT22;31884;52.538;13.820;2023-07-31T04:51:47;15.90;99.90
44843;DHT22;31884;52.538;13.820;2023-07-31T04:54:13;16.00;99.90
44843;DHT22;31884;52.538;13.820;2023-07-31T04:56:40;15.90;99.90
44843;DHT22;31884;52.538;13.820;2023-07-31T04:59:06;16.00;99.90
44843;DHT22;31884;52.538;13.820;2023-07-31T05:01:32;16.00;99.90
44843;DHT22;31884;52.538;13.820;2023-07-31T05:03:57;16.10;99.90
44843;DHT22;31884;52.538;13.820;2023-07-31T05:06:23;16.10;99.90
44843;DHT22;31884;52.538;13.820;2023-07-31T05:08:48;16.10;99.90
44843;DHT22;31884;52.538;13.820;2023-07-31T05:11:14;16.10;99.90
44843;DHT22;31884;52.538;13.820;2023-07-31T05:13:39;16.20;99.90
44843;DHT22;31884;52.538;13.820;2023-07-31T05:16:05;16.20;99.90
44843;DHT22;31884;52.538;13.820;2023-07-31T05:18:30;16.20;99.90
44843;DHT22;31884;52.538;13.820;2023-07-31T05:20:56;16.20;99.90
44843;DHT22;31884;52.538;13.820;2023-07-31T05:23:21;16.20;99.90
44843;DHT22;31884;52.538;13.820;2023-07-31T05:25:47;16.30;99.90
44843;DHT22;31884;52.538;13.820;2023-07-31T05:28:12;16.40;99.90
44843;DHT22;31884;52.538;13.820;2023-07-31T05:30:38;16.40;99.90
44843;DHT22;31884;52.538;13.820;2023-07-31T05:33:03;16.50;99.90
44843;DHT22;31884;52.538;13.820;2023-07-31T05:35:29;16.60;99.90
44843;DHT22;31884;52.538;13.820;2023-07-31T05:37:54;16.60;99.90
44843;DHT22;31884;52.538;13.820;2023-07-31T05:40:20;16.70;99.90
44843;DHT22;31884;52.538;13.820;2023-07-31T05:42:45;16.80;99.90
44843;DHT22;31884;52.538;13.820;2023-07-31T05:45:11;16.90;99.90
44843;DHT22;31884;52.538;13.820;2023-07-31T05:47:38;16.90;99.90
44843;DHT22;31884;52.538;13.820;2023-07-31T05:50:03;17.00;99.90
44843;DHT22;31884;52.538;13.820;2023-07-31T05:52:29;16.90;99.90
44843;DHT22;31884;52.538;13.820;2023-07-31T05:54:55;16.90;99.90
44843;DHT22;31884;52.538;13.820;2023-07-31T05:57:20;16.90;99.90
44843;DHT22;31884;52.538;13.820;2023-07-31T05:59:46;16.90;99.90
44843;DHT22;31884;52.538;13.820;2023-07-31T06:02:11;17.00;99.90
44843;DHT22;31884;52.538;13.820;2023-07-31T06:04:37;17.00;99.90
44843;DHT22;31884;52.538;13.820;2023-07-31T06:07:03;17.10;99.90
44843;DHT22;31884;52.538;13.820;2023-07-31T06:09:28;17.10;99.90
44843;DHT22;31884;52.538;13.820;2023-07-31T06:11:54;17.10;99.90
44843;DHT22;31884;52.538;13.820;2023-07-31T06:14:19;17.20;99.90
44843;DHT22;31884;52.538;13.820;2023-07-31T06:16:45;17.10;99.90
44843;DHT22;31884;52.538;13.820;2023-07-31T06:19:10;17.10;99.90
44843;DHT22;31884;52.538;13.820;2023-07-31T06:21:36;17.10;99.90
44843;DHT22;31884;52.538;13.820;2023-07-31T06:24:03;17.10;99.90
44843;DHT22;31884;52.538;13.820;2023-07-31T06:26:29;17.20;99.90
44843;DHT22;31884;52.538;13.820;2023-07-31T06:28:54;17.20;99.90
44843;DHT22;31884;52.538;13.820;2023-07-31T06:31:20;17.20;99.90
44843;DHT22;31884;52.538;13.820;2023-07-31T06:33:49;17.20;99.90
44843;DHT22;31884;52.538;13.820;2023-07-31T06:36:15;17.20;99.90
44843;DHT22;31884;52.538;13.820;2023-07-31T06:38:41;17.30;99.90
44843;DHT22;31884;52.538;13.820;2023-07-31T06:41:06;17.30;99.90
44843;DHT22;31884;52.538;13.820;2023-07-31T06:43:32;17.40;99.90
44843;DHT22;31884;52.538;13.820;2023-07-31T06:45:59;17.40;99.90
44843;DHT22;31884;52.538;13.820;2023-07-31T06:48:25;17.50;99.90
44843;DHT22;31884;52.538;13.820;2023-07-31T06:50:50;17.50;99.90
44843;DHT22;31884;52.538;13.820;2023-07-31T06:53:16;17.50;99.90
44843;DHT22;31884;52.538;13.820;2023-07-31T06:55:41;17.60;99.90
44843;DHT22;31884;52.538;13.820;2023-07-31T06:58:07;17.60;99.90
44843;DHT22;31884;52.538;13.820;2023-07-31T07:00:32;17.70;99.90
44843;DHT22;31884;52.538;13.820;2023-07-31T07:02:58;17.90;99.90
44843;DHT22;31884;52.538;13.820;2023-07-31T07:05:23;18.10;99.90
44843;DHT22;31884;52.538;13.820;2023-07-31T07:07:50;18.20;99.90
44843;DHT22;31884;52.538;13.820;2023-07-31T07:10:16;18.30;99.90
44843;DHT22;31884;52.538;13.820;2023-07-31T07:12:42;18.30;99.90
44843;DHT22;31884;52.538;13.820;2023-07-31T07:15:08;18.20;99.90
44843;DHT22;31884;52.538;13.820;2023-07-31T07:17:33;18.20;99.90
44843;DHT22;31884;52.538;13.820;2023-07-31T07:19:59;18.20;99.90
44843;DHT22;31884;52.538;13.820;2023-07-31T07:22:26;18.30;99.90
44843;DHT22;31884;52.538;13.820;2023-07-31T07:24:52;18.40;99.90
44843;DHT22;31884;52.538;13.820;2023-07-31T07:27:18;18.30;99.90
44843;DHT22;31884;52.538;13.820;2023-07-31T07:29:45;18.30;99.90
44843;DHT22;31884;52.538;13.820;2023-07-31T07:32:11;18.20;99.90
44843;DHT22;31884;52.538;13.820;2023-07-31T07:34:37;18.20;99.90
44843;DHT22;31884;52.538;13.820;2023-07-31T07:37:02;18.00;99.90
44843;DHT22;31884;52.538;13.820;2023-07-31T07:39:28;18.00;99.90
44843;DHT22;31884;52.538;13.820;2023-07-31T07:41:53;17.90;99.90
44843;DHT22;31884;52.538;13.820;2023-07-31T07:44:19;17.90;99.90
44843;DHT22;31884;52.538;13.820;2023-07-31T07:46:44;17.90;99.90
44843;DHT22;31884;52.538;13.820;2023-07-31T07:49:10;17.80;99.90
44843;DHT22;31884;52.538;13.820;2023-07-31T07:51:35;17.90;99.90
44843;DHT22;31884;52.538;13.820;2023-07-31T07:54:02;18.00;99.90
44843;DHT22;31884;52.538;13.820;2023-07-31T07:56:27;18.20;99.90
44843;DHT22;31884;52.538;13.820;2023-07-31T07:58:54;18.60;99.90
44843;DHT22;31884;52.538;13.820;2023-07-31T08:01:19;18.90;99.90
44843;DHT22;31884;52.538;13.820;2023-07-31T08:03:45;19.00;99.90
44843;DHT22;31884;52.538;13.820;2023-07-31T08:06:11;19.20;99.20
44843;DHT22;31884;52.538;13.820;2023-07-31T08:08:37;19.30;98.20
44843;DHT22;31884;52.538;13.820;2023-07-31T08:11:02;19.40;98.00
44843;DHT22;31884;52.538;13.820;2023-07-31T08:13:28;19.90;97.30
44843;DHT22;31884;52.538;13.820;2023-07-31T08:15:53;20.10;95.50
44843;DHT22;31884;52.538;13.820;2023-07-31T08:18:19;20.30;95.00
44843;DHT22;31884;52.538;13.820;2023-07-31T08:20:45;20.50;92.50
44843;DHT22;31884;52.538;13.820;2023-07-31T08:23:11;20.30;91.80
44843;DHT22;31884;52.538;13.820;2023-07-31T08:25:37;20.20;92.40
44843;DHT22;31884;52.538;13.820;2023-07-31T08:28:03;20.00;92.40
44843;DHT22;31884;52.538;13.820;2023-07-31T08:30:29;20.00;92.60
44843;DHT22;31884;52.538;13.820;2023-07-31T08:32:55;19.90;92.50
44843;DHT22;31884;52.538;13.820;2023-07-31T08:35:20;19.90;92.80
44843;DHT22;31884;52.538;13.820;2023-07-31T08:37:46;19.80;92.60
44843;DHT22;31884;52.538;13.820;2023-07-31T08:40:11;19.90;92.90
44843;DHT22;31884;52.538;13.820;2023-07-31T08:42:44;19.90;93.00
44843;DHT22;31884;52.538;13.820;2023-07-31T08:45:14;19.80;93.00
44843;DHT22;31884;52.538;13.820;2023-07-31T08:47:41;19.90;93.30
44843;DHT22;31884;52.538;13.820;2023-07-31T08:50:07;20.20;93.20
44843;DHT22;31884;52.538;13.820;2023-07-31T08:52:33;20.20;91.90
44843;DHT22;31884;52.538;13.820;2023-07-31T08:54:59;20.30;92.20
44843;DHT22;31884;52.538;13.820;2023-07-31T08:57:24;20.30;92.20
44843;DHT22;31884;52.538;13.820;2023-07-31T08:59:50;20.30;91.90
44843;DHT22;31884;52.538;13.820;2023-07-31T09:02:17;20.10;91.90
44843;DHT22;31884;52.538;13.820;2023-07-31T09:04:44;19.90;92.50
44843;DHT22;31884;52.538;13.820;2023-07-31T09:07:10;19.90;93.10
44843;DHT22;31884;52.538;13.820;2023-07-31T09:09:38;19.90;93.10
44843;DHT22;31884;52.538;13.820;2023-07-31T09:12:04;19.80;93.30
44843;DHT22;31884;52.538;13.820;2023-07-31T09:14:30;19.90;93.70
44843;DHT22;31884;52.538;13.820;2023-07-31T09:16:57;19.90;94.40
44843;DHT22;31884;52.538;13.820;2023-07-31T09:19:26;19.80;94.50
44843;DHT22;31884;52.538;13.820;2023-07-31T09:21:52;19.70;94.40
44843;DHT22;31884;52.538;13.820;2023-07-31T09:24:31;19.60;94.90
44843;DHT22;31884;52.538;13.820;2023-07-31T09:26:59;19.70;95.10
44843;DHT22;31884;52.538;13.820;2023-07-31T09:29:25;19.80;95.00
44843;DHT22;31884;52.538;13.820;2023-07-31T09:31:52;19.90;94.00
44843;DHT22;31884;52.538;13.820;2023-07-31T09:34:18;20.10;93.90
44843;DHT22;31884;52.538;13.820;2023-07-31T09:36:46;20.30;93.00
44843;DHT22;31884;52.538;13.820;2023-07-31T09:39:12;20.50;93.10
44843;DHT22;31884;52.538;13.820;2023-07-31T09:41:39;20.70;92.40
44843;DHT22;31884;52.538;13.820;2023-07-31T09:44:06;21.00;91.70
44843;DHT22;31884;52.538;13.820;2023-07-31T09:46:33;21.20;90.70
44843;DHT22;31884;52.538;13.820;2023-07-31T09:49:13;21.20;87.50
44843;DHT22;31884;52.538;13.820;2023-07-31T09:51:40;21.40;88.90
44843;DHT22;31884;52.538;13.820;2023-07-31T09:54:09;21.60;89.50
44843;DHT22;31884;52.538;13.820;2023-07-31T09:56:47;21.70;87.10
44843;DHT22;31884;52.538;13.820;2023-07-31T09:59:16;21.50;86.60
44843;DHT22;31884;52.538;13.820;2023-07-31T10:01:43;21.40;86.80
44843;DHT22;31884;52.538;13.820;2023-07-31T10:04:09;21.30;87.00
44843;DHT22;31884;52.538;13.820;2023-07-31T10:06:36;21.00;88.90
44843;DHT22;31884;52.538;13.820;2023-07-31T10:09:06;20.70;90.10
44843;DHT22;31884;52.538;13.820;2023-07-31T10:11:38;20.50;90.70
44843;DHT22;31884;52.538;13.820;2023-07-31T10:14:05;20.30;91.40
44843;DHT22;31884;52.538;13.820;2023-07-31T10:16:31;20.20;91.60
44843;DHT22;31884;52.538;13.820;2023-07-31T10:18:57;20.20;91.60
44843;DHT22;31884;52.538;13.820;2023-07-31T10:21:23;20.30;91.60
44843;DHT22;31884;52.538;13.820;2023-07-31T10:23:49;20.40;91.30
44843;DHT22;31884;52.538;13.820;2023-07-31T10:26:17;20.60;89.00
44843;DHT22;31884;52.538;13.820;2023-07-31T10:28:45;20.80;89.40
44843;DHT22;31884;52.538;13.820;2023-07-31T10:31:12;20.90;89.20
44843;DHT22;31884;52.538;13.820;2023-07-31T10:33:38;21.20;88.30
44843;DHT22;31884;52.538;13.820;2023-07-31T10:36:20;21.40;84.10
44843;DHT22;31884;52.538;13.820;2023-07-31T10:38:48;21.50;82.90
44843;DHT22;31884;52.538;13.820;2023-07-31T10:41:14;21.60;84.30
44843;DHT22;31884;52.538;13.820;2023-07-31T10:43:39;21.60;84.20
44843;DHT22;31884;52.538;13.820;2023-07-31T10:46:12;21.60;84.00
44843;DHT22;31884;52.538;13.820;2023-07-31T10:48:39;21.40;83.70
44843;DHT22;31884;52.538;13.820;2023-07-31T10:51:08;21.00;84.40
44843;DHT22;31884;52.538;13.820;2023-07-31T10:53:35;20.70;85.70
44843;DHT22;31884;52.538;13.820;2023-07-31T10:56:07;20.50;87.30
44843;DHT22;31884;52.538;13.820;2023-07-31T10:58:34;20.50;88.50
44843;DHT22;31884;52.538;13.820;2023-07-31T11:01:02;20.50;90.20
44843;DHT22;31884;52.538;13.820;2023-07-31T11:03:47;20.60;91.10
44843;DHT22;31884;52.538;13.820;2023-07-31T11:06:19;20.90;91.50
44843;DHT22;31884;52.538;13.820;2023-07-31T11:08:46;21.30;90.60
44843;DHT22;31884;52.538;13.820;2023-07-31T11:11:14;21.80;88.20
44843;DHT22;31884;52.538;13.820;2023-07-31T11:13:48;22.20;87.50
44843;DHT22;31884;52.538;13.820;2023-07-31T11:16:15;22.60;85.10
44843;DHT22;31884;52.538;13.820;2023-07-31T11:18:44;23.10;83.40
44843;DHT22;31884;52.538;13.820;2023-07-31T11:21:14;23.40;81.20
44843;DHT22;31884;52.538;13.820;2023-07-31T11:23:40;23.50;79.50
44843;DHT22;31884;52.538;13.820;2023-07-31T11:26:06;23.70;79.20
44843;DHT22;31884;52.538;13.820;2023-07-31T11:28:33;23.70;78.70
44843;DHT22;31884;52.538;13.820;2023-07-31T11:31:00;23.60;78.00
44843;DHT22;31884;52.538;13.820;2023-07-31T11:33:26;23.50;74.60
44843;DHT22;31884;52.538;13.820;2023-07-31T11:35:51;23.20;73.50
44843;DHT22;31884;52.538;13.820;2023-07-31T11:38:26;23.20;76.60
44843;DHT22;31884;52.538;13.820;2023-07-31T11:40:52;23.40;75.90
44843;DHT22;31884;52.538;13.820;2023-07-31T11:43:19;23.30;75.10
44843;DHT22;31884;52.538;13.820;2023-07-31T11:45:50;23.10;74.70
44843;DHT22;31884;52.538;13.820;2023-07-31T11:48:20;22.90;75.60
44843;DHT22;31884;52.538;13.820;2023-07-31T11:50:48;22.70;75.90
44843;DHT22;31884;52.538;13.820;2023-07-31T11:53:16;22.80;76.10
44843;DHT22;31884;52.538;13.820;2023-07-31T11:55:42;23.00;76.40
44843;DHT22;31884;52.538;13.820;2023-07-31T11:58:09;23.10;75.90
44843;DHT22;31884;52.538;13.820;2023-07-31T12:00:35;23.20;74.80
44843;DHT22;31884;52.538;13.820;2023-07-31T12:03:01;23.10;72.70
44843;DHT22;31884;52.538;13.820;2023-07-31T12:05:26;22.90;72.40
44843;DHT22;31884;52.538;13.820;2023-07-31T12:07:54;22.70;71.50
44843;DHT22;31884;52.538;13.820;2023-07-31T12:10:28;22.70;72.40
44843;DHT22;31884;52.538;13.820;2023-07-31T12:12:59;22.50;71.60
44843;DHT22;31884;52.538;13.820;2023-07-31T12:15:30;22.50;69.90
44843;DHT22;31884;52.538;13.820;2023-07-31T12:17:56;22.20;70.00
44843;DHT22;31884;52.538;13.820;2023-07-31T12:20:22;22.20;70.70
44843;DHT22;31884;52.538;13.820;2023-07-31T12:22:47;22.40;70.70
44843;DHT22;31884;52.538;13.820;2023-07-31T12:25:15;22.40;70.10
44843;DHT22;31884;52.538;13.820;2023-07-31T12:27:44;22.30;69.40
44843;DHT22;31884;52.538;13.820;2023-07-31T12:30:31;22.20;71.20
44843;DHT22;31884;52.538;13.820;2023-07-31T12:32:57;22.10;72.70
44843;DHT22;31884;52.538;13.820;2023-07-31T12:35:23;22.00;73.60
44843;DHT22;31884;52.538;13.820;2023-07-31T12:37:48;21.80;73.70
44843;DHT22;31884;52.538;13.820;2023-07-31T12:40:14;21.60;74.10
44843;DHT22;31884;52.538;13.820;2023-07-31T12:42:41;21.50;74.50
44843;DHT22;31884;52.538;13.820;2023-07-31T12:45:07;21.60;74.70
44843;DHT22;31884;52.538;13.820;2023-07-31T12:47:32;21.70;74.90
44843;DHT22;31884;52.538;13.820;2023-07-31T12:49:58;21.80;74.10
44843;DHT22;31884;52.538;13.820;2023-07-31T12:52:23;21.90;73.30
44843;DHT22;31884;52.538;13.820;2023-07-31T12:54:49;21.90;73.00
44843;DHT22;31884;52.538;13.820;2023-07-31T12:57:14;21.90;73.00
44843;DHT22;31884;52.538;13.820;2023-07-31T12:59:40;21.80;73.00
44843;DHT22;31884;52.538;13.820;2023-07-31T13:02:05;21.80;73.10
44843;DHT22;31884;52.538;13.820;2023-07-31T13:04:31;21.70;73.20
44843;DHT22;31884;52.538;13.820;2023-07-31T13:06:56;21.60;73.10
44843;DHT22;31884;52.538;13.820;2023-07-31T13:09:22;21.50;73.40
44843;DHT22;31884;52.538;13.820;2023-07-31T13:11:47;21.50;73.50
44843;DHT22;31884;52.538;13.820;2023-07-31T13:14:13;21.70;73.70
44843;DHT22;31884;52.538;13.820;2023-07-31T13:16:38;21.90;73.20
44843;DHT22;31884;52.538;13.820;2023-07-31T13:19:04;22.20;72.30
44843;DHT22;31884;52.538;13.820;2023-07-31T13:21:29;22.30;70.90
44843;DHT22;31884;52.538;13.820;2023-07-31T13:23:54;22.30;70.50
44843;DHT22;31884;52.538;13.820;2023-07-31T13:26:23;22.40;69.70
44843;DHT22;31884;52.538;13.820;2023-07-31T13:28:48;22.60;68.30
44843;DHT22;31884;52.538;13.820;2023-07-31T13:31:14;22.60;67.70
44843;DHT22;31884;52.538;13.820;2023-07-31T13:33:39;22.60;69.30
44843;DHT22;31884;52.538;13.820;2023-07-31T13:36:05;22.50;69.20
44843;DHT22;31884;52.538;13.820;2023-07-31T13:38:30;22.40;69.00
44843;DHT22;31884;52.538;13.820;2023-07-31T13:40:56;22.20;69.70
44843;DHT22;31884;52.538;13.820;2023-07-31T13:43:21;22.10;70.20
44843;DHT22;31884;52.538;13.820;2023-07-31T13:45:47;22.00;70.50
44843;DHT22;31884;52.538;13.820;2023-07-31T13:48:12;21.90;70.40
44843;DHT22;31884;52.538;13.820;2023-07-31T13:50:38;21.80;70.50
44843;DHT22;31884;52.538;13.820;2023-07-31T13:53:03;21.60;71.00
44843;DHT22;31884;52.538;13.820;2023-07-31T13:55:29;21.60;71.50
44843;DHT22;31884;52.538;13.820;2023-07-31T13:57:54;21.60;72.00
44843;DHT22;31884;52.538;13.820;2023-07-31T14:00:20;21.60;72.40
44843;DHT22;31884;52.538;13.820;2023-07-31T14:02:45;21.50;72.60
44843;DHT22;31884;52.538;13.820;2023-07-31T14:05:11;21.50;72.50
44843;DHT22;31884;52.538;13.820;2023-07-31T14:07:36;21.60;72.90
44843;DHT22;31884;52.538;13.820;2023-07-31T14:10:02;21.70;73.00
44843;DHT22;31884;52.538;13.820;2023-07-31T14:12:29;21.90;72.90
44843;DHT22;31884;52.538;13.820;2023-07-31T14:14:54;22.10;72.70
44843;DHT22;31884;52.538;13.820;2023-07-31T14:17:20;22.20;72.50
44843;DHT22;31884;52.538;13.820;2023-07-31T14:19:45;22.30;71.30
44843;DHT22;31884;52.538;13.820;2023-07-31T14:22:11;22.40;71.20
44843;DHT22;31884;52.538;13.820;2023-07-31T14:24:36;22.50;71.20
44843;DHT22;31884;52.538;13.820;2023-07-31T14:27:02;22.70;71.80
44843;DHT22;31884;52.538;13.820;2023-07-31T14:29:29;22.80;69.90
44843;DHT22;31884;52.538;13.820;2023-07-31T14:31:55;22.80;70.20
44843;DHT22;31884;52.538;13.820;2023-07-31T14:34:20;22.90;69.20
44843;DHT22;31884;52.538;13.820;2023-07-31T14:36:46;22.90;69.50
44843;DHT22;31884;52.538;13.820;2023-07-31T14:39:11;22.80;69.30
44843;DHT22;31884;52.538;13.820;2023-07-31T14:41:37;23.00;69.60
44843;DHT22;31884;52.538;13.820;2023-07-31T14:44:02;23.00;69.40
44843;DHT22;31884;52.538;13.820;2023-07-31T14:46:28;23.00;69.50
44843;DHT22;31884;52.538;13.820;2023-07-31T14:48:53;23.00;69.70
44843;DHT22;31884;52.538;13.820;2023-07-31T14:51:19;23.00;69.50
44843;DHT22;31884;52.538;13.820;2023-07-31T14:53:44;22.90;68.90
44843;DHT22;31884;52.538;13.820;2023-07-31T14:56:10;22.80;68.60
44843;DHT22;31884;52.538;13.820;2023-07-31T14:58:36;22.70;69.10
44843;DHT22;31884;52.538;13.820;2023-07-31T15:01:01;22.50;69.10
44843;DHT22;31884;52.538;13.820;2023-07-31T15:03:27;22.30;70.00
44843;DHT22;31884;52.538;13.820;2023-07-31T15:05:52;22.20;70.40
44843;DHT22;31884;52.538;13.820;2023-07-31T15:08:18;22.20;70.80
44843;DHT22;31884;52.538;13.820;2023-07-31T15:10:44;22.30;70.80
44843;DHT22;31884;52.538;13.820;2023-07-31T15:13:10;22.40;71.00
44843;DHT22;31884;52.538;13.820;2023-07-31T15:15:35;22.50;71.00